Annville, Kentucky
Current Conditions -  °F | °C
As of 1:18 AM on Monday 26 Jan 2015 (Local Time) from KLOZ Reporting Station
Light Rain Light Rain  
Wind Chill: 33°   Ceiling: 1800
Heat Index: 40°   Visibility: 10mi
Dew Point: 34°   Wind: 12mph
Humidity: 79%   Direction: 260°W
Pressure: 29.64"   Gusts: NA
Location:  37.32°N, 83.97°W
Report Text: KLOZ 260618Z AUTO 26010KT 10SM -RA FEW008 FEW013 OVC018 04/01 A2964 RMK AO2 P0000 T00440011
Loading
Personal Weather Stations






























Interactive Weather Map New forecast layout! Learn more

10-Day Weather Forecast

Advertisements
Track Severe Weather on mobile